AirNav   Pilot Hours Calculator
 
 903 users online  

1IN1 Shearer Airport
Lewisville, Indiana, USA

GOING TO LEWISVILLE?


FAA INFORMATION EFFECTIVE 23 MAY 2019

Location

FAA Identifier: 1IN1
Lat/Long: 39-29-18.1680N / 086-39-11.0100W
39-29.302800N / 086-39.183500W
39.4883800 / -86.6530583
(estimated)
Elevation: 750 ft. / 229 m (estimated)
Variation: 02W (1990)
From city: 2 miles NW of LEWISVILLE, IN
Time zone: UTC -4 (UTC -5 during Standard Time)
Zip code: 46120

Airport Operations

Airport use: Private use. Permission required prior to landing
Activation date: 09/1993
Control tower: no
ARTCC: INDIANAPOLIS CENTER
FSS: TERRE HAUTE FLIGHT SERVICE STATION
Attendance: IREG
Wind indicator: yes
Segmented circle: no

Airport Communications

WX AWOS-3 at GPC (11 nm NW): 118.125 (765-653-1789)
WX AWOS-3 at 2R2 (18 nm NE): 118.025 (317-718-4872)

Nearby radio navigation aids

VOR radial/distance  VOR name  Freq  Var
OOMr357/20.8HOOSIER VORTAC110.2002W
VHPr213/23.6BRICKYARD VORTAC116.3001E
TTHr088/27.6TERRE HAUTE VORTAC115.3002E
SHBr256/39.3SHELBYVILLE VOR/DME112.0001E

 
NDB name  Hdg/Dist  Freq  Var  ID
CRAWFORDSVILLE162/31.938804WCFJ -.-. ..-. .---
METROPOLITAN229/38.733803WUMP ..- -- .--.

Airport Services

Runway Information

Runway 18/36

Dimensions: 700 x 30 ft. / 213 x 9 m
Surface: turf
RUNWAY 18  RUNWAY 36
Traffic pattern: leftright
Obstructions: 30 ft. trees25 ft. pline

Airport Ownership and Management from official FAA records

Ownership: Privately-owned
Owner: RONALD SHEARER
RR 1 BOX 284-A
QUINCY, IN 47456
Phone 317-528-2656
Manager: RONALD SHEARER
RR 1 BOX 284-A
QUINCY, IN 47456
Phone 317-528-2656

Airport Operational Statistics

Aircraft based on the field: 1
Single engine airplanes: 1
    

Additional Remarks

FOR CD CTC INDIANAPOLIS APCH AT 317-227-5743.

Instrument Procedures

There are no published instrument procedures at 1IN1.

Some nearby airports with instrument procedures:

KGPC - Putnam County Regional Airport (11 nm NW)
2R2 - Hendricks County Airport-Gordon Graham Field (18 nm NE)
KBMG - Monroe County Airport (21 nm S)
0I2 - Brazil Clay County Airport (21 nm W)
KIND - Indianapolis International Airport (22 nm NE)
 
Loc | Ops | Rwys | IFR | FBO | Links
Com | Nav | Svcs | Stats | Notes
Area around 1IN1 (Shearer Airport)
 
Road maps at: MapQuest Bing Google
 
Aerial photo
No photo
 
Sectional chart

 
Airport distance calculator
Flying to Shearer Airport? Find the distance to fly.

From to 1IN1

Sunrise and sunset
Times for 25-May-2019
 Local
(UTC-4)
 Zulu
(UTC)
Morning civil twilight05:5509:55
Sunrise06:2610:26
Sunset21:0101:01
Evening civil twilight21:3201:32

Current date and time
Zulu (UTC)  26-May-2019 00:24:52
Local (UTC-4)  25-May-2019 20:24:52
 
METAR
KGPC 
11nm NW 
252355Z AUTO 26004KT 7SM CLR 27/16 A3004 RMK AO2
KBMG 
20nm S 
252353Z 24006KT 10SM CLR 28/21 A3004 RMK AO2 SLP164 T02780206 10306 20278 53003
KIND 
22nm NE 
252354Z 28010KT 10SM SCT040 SCT250 28/17 A3002 RMK AO2 SLP159 TCU DSNT S 60004 T02780172 10294 20239 51005 $
TAF
KBMG 
20nm S 
251720Z 2518/2618 24013G24KT P6SM FEW035 SCT180 FM251900 24012G23KT P6SM SCT035 BKN100 FM260000 23007KT P6SM FEW035 SCT100 FM261100 21005KT P6SM VCSH SCT035 BKN100 FM261600 24008KT P6SM SCT035 BKN100
KIND 
22nm NE 
252020Z 2520/2624 24011G20KT P6SM SCT035 BKN090 FM252200 24011G22KT P6SM SCT035 BKN180 FM260200 22007KT P6SM SCT250 FM260900 22005KT P6SM VCSH BKN150 FM261700 25008KT P6SM SCT035 BKN060
NOTAMs
Click for the latest NOTAMs
NOTAMs are issued by the DoD/FAA and will open in a separate window not controlled by AirNav.

 

 
 

Would you like to see your business listed on this page?

 If your business provides an interesting product or service to pilots, flight crews, aircraft, or users of the Shearer Airport, you should consider listing it here.  To start the listing process, click on the button below
 
Add a business
 

Other Pages about Shearer Airport

Update a link
 
Copyright © AirNav, LLC. All rights reserved. Privacy Policy  Contact